Time;durP1;ratioP1;P1;durP2;ratioP2;P2;SDS_P1;SDS_P2;PMS_P1;PMS_P2;Temp;Humidity;BMP_temperature;BMP_pressure;BME280_temperature;BME280_humidity;BME280_pressure;Samples;Min_cycle;Max_cycle;Signal;HPM_P1;HPM_P2
2023/06/30 00:00:57;;;;;;;1.60;1.08;;;;;;;29.61;37.00;101349.09;5055403;27;96825;-81
2023/06/30 00:03:24;;;;;;;1.50;1.10;;;;;;;29.62;36.98;101336.97;5054266;27;96683;-81
2023/06/30 00:05:51;;;;;;;1.30;1.02;;;;;;;29.61;36.99;101342.72;5056692;27;96892;-81
2023/06/30 00:08:18;;;;;;;1.40;1.30;;;;;;;29.61;37.33;101340.78;5055712;27;96751;-81
2023/06/30 00:10:45;;;;;;;1.45;0.90;;;;;;;29.60;37.10;101336.34;5054506;27;96705;-81
2023/06/30 00:13:12;;;;;;;1.13;0.93;;;;;;;29.61;36.84;101339.94;5056256;27;96653;-81
2023/06/30 00:15:39;;;;;;;1.25;0.93;;;;;;;29.60;37.17;101347.41;5055592;27;96984;-80
2023/06/30 00:18:06;;;;;;;1.42;1.00;;;;;;;29.59;37.18;101342.94;5053787;27;96859;-81
2023/06/30 00:20:33;;;;;;;1.33;1.08;;;;;;;29.60;37.13;101341.88;5055385;27;96748;-81
2023/06/30 00:23:00;;;;;;;1.13;1.00;;;;;;;29.60;36.87;101336.34;5053076;27;97234;-81
2023/06/30 00:25:27;;;;;;;1.77;1.20;;;;;;;29.59;37.09;101337.41;5055256;27;96641;-81
2023/06/30 00:27:53;;;;;;;1.25;1.02;;;;;;;29.59;37.03;101331.03;5042235;27;98356;-80
2023/06/30 00:30:20;;;;;;;1.83;0.95;;;;;;;29.60;37.05;101341.88;5050572;27;96648;-80
2023/06/30 00:32:47;;;;;;;1.52;0.90;;;;;;;29.59;36.96;101345.72;5051728;27;96835;-80
2023/06/30 00:35:14;;;;;;;1.13;0.90;;;;;;;29.59;37.15;101340.16;5051360;27;99107;-81
2023/06/30 00:37:40;;;;;;;1.45;0.90;;;;;;;29.59;36.80;101351.25;5053661;27;96818;-80
2023/06/30 00:40:09;;;;;;;1.52;0.88;;;;;;;29.59;36.97;101351.25;5051362;27;96746;-81
2023/06/30 00:42:35;;;;;;;2.20;0.85;;;;;;;29.57;37.03;101342.31;5052511;27;97010;-80
2023/06/30 00:45:02;;;;;;;1.15;1.00;;;;;;;29.57;37.00;101345.09;5051190;27;97612;-80
2023/06/30 00:47:29;;;;;;;1.55;1.10;;;;;;;29.58;37.05;101346.78;5033361;27;99433;-80
2023/06/30 00:49:56;;;;;;;1.17;0.90;;;;;;;29.57;36.98;101336.78;5052545;27;96820;-80
2023/06/30 00:52:23;;;;;;;1.23;0.80;;;;;;;29.57;36.81;101342.31;5033277;27;97010;-80
2023/06/30 00:54:50;;;;;;;1.35;1.02;;;;;;;29.56;37.25;101335.09;5048920;27;96757;-81
2023/06/30 00:57:17;;;;;;;1.30;0.98;;;;;;;29.57;37.10;101347.00;5050511;27;100676;-81
2023/06/30 00:59:44;;;;;;;1.40;0.85;;;;;;;29.56;36.90;101340.63;5051054;27;97041;-80
2023/06/30 01:02:20;;;;;;;1.25;0.93;;;;;;;29.57;36.92;101342.31;5047258;27;97146;-81
2023/06/30 01:05:04;;;;;;;1.10;0.80;;;;;;;29.56;36.83;101345.31;5049215;27;98629;-81
2023/06/30 01:07:42;;;;;;;1.38;1.02;;;;;;;29.55;36.98;101350.00;5042421;27;100387;-81
2023/06/30 01:10:14;;;;;;;1.35;0.85;;;;;;;29.53;37.19;101346.59;5053712;27;96910;-80
2023/06/30 01:12:43;;;;;;;0.93;0.80;;;;;;;29.54;37.05;101351.06;5056794;27;96864;-81
2023/06/30 01:15:11;;;;;;;1.33;0.98;;;;;;;29.53;37.04;101349.38;5057711;27;97076;-81
2023/06/30 01:17:46;;;;;;;2.40;1.00;;;;;;;29.54;36.94;101350.22;5057769;27;97416;-80
2023/06/30 01:20:16;;;;;;;1.42;0.85;;;;;;;29.53;36.96;101352.13;5057868;27;97249;-81
2023/06/30 01:23:13;;;;;;;1.33;0.90;;;;;;;29.53;37.05;101354.91;5056978;27;96967;-80
2023/06/30 01:25:40;;;;;;;1.02;0.77;;;;;;;29.52;36.99;101352.34;5070983;27;99913;-80
2023/06/30 01:28:08;;;;;;;1.05;0.75;;;;;;;29.51;37.04;101354.28;5036710;27;100356;-81
2023/06/30 01:30:36;;;;;;;0.80;0.70;;;;;;;29.52;37.06;101358.75;5035698;27;98364;-81
2023/06/30 01:33:03;;;;;;;2.03;1.20;;;;;;;29.52;36.92;101363.44;5053980;27;97080;-80
2023/06/30 01:35:29;;;;;;;1.02;0.80;;;;;;;29.51;37.00;101357.03;5053017;27;99029;-81
2023/06/30 01:37:59;;;;;;;1.27;0.93;;;;;;;29.52;36.92;101355.13;5052914;27;97932;-81
2023/06/30 01:40:26;;;;;;;1.15;0.80;;;;;;;29.51;36.80;101359.81;5054459;27;96721;-80
2023/06/30 01:42:55;;;;;;;1.45;0.95;;;;;;;29.52;37.05;101355.13;5058511;27;98586;-80
2023/06/30 01:45:26;;;;;;;1.15;0.80;;;;;;;29.51;37.01;101357.03;5055075;27;99760;-81
2023/06/30 01:47:53;;;;;;;1.02;0.80;;;;;;;29.51;36.95;101358.97;5056279;27;100833;-81
2023/06/30 01:50:21;;;;;;;1.00;0.70;;;;;;;29.50;37.17;101352.56;5058042;27;97095;-81
2023/06/30 01:52:49;;;;;;;1.85;0.90;;;;;;;29.51;37.11;101345.13;5051123;27;96801;-81
2023/06/30 01:55:17;;;;;;;1.30;0.70;;;;;;;29.50;36.88;101344.28;5056326;27;100749;-80
2023/06/30 01:57:43;;;;;;;1.17;0.70;;;;;;;29.49;37.19;101338.97;5051334;27;99119;-81
2023/06/30 02:00:10;;;;;;;0.90;0.80;;;;;;;29.50;36.98;101341.50;5058516;27;96681;-81
2023/06/30 02:02:41;;;;;;;1.33;0.80;;;;;;;29.49;37.04;101341.72;5053461;27;96881;-81
2023/06/30 02:05:12;;;;;;;0.95;0.70;;;;;;;29.48;37.11;101340.88;5055708;27;96819;-81
2023/06/30 02:07:38;;;;;;;1.80;0.70;;;;;;;29.49;37.18;101341.72;5056772;27;99573;-81
2023/06/30 02:10:07;;;;;;;1.35;0.82;;;;;;;29.49;37.21;101341.72;5056859;27;96764;-81
2023/06/30 02:12:34;;;;;;;1.10;0.70;;;;;;;29.48;36.98;101343.66;5067848;27;96868;-81
2023/06/30 02:15:02;;;;;;;2.10;0.88;;;;;;;29.48;36.96;101351.09;5051532;27;97619;-80
2023/06/30 02:17:33;;;;;;;1.65;0.90;;;;;;;29.48;37.15;101342.78;5058626;27;96769;-81
2023/06/30 02:20:00;;;;;;;0.93;0.70;;;;;;;29.48;36.85;101337.25;5058742;27;97386;-81
2023/06/30 02:22:27;;;;;;;1.00;0.68;;;;;;;29.47;37.08;101338.34;5051253;27;96712;-80
2023/06/30 02:24:55;;;;;;;1.00;0.75;;;;;;;29.47;37.17;101341.94;5035897;27;100433;-81
2023/06/30 02:27:24;;;;;;;1.60;0.75;;;;;;;29.47;36.95;101341.94;5052624;27;97319;-81
2023/06/30 02:29:50;;;;;;;1.05;0.80;;;;;;;29.47;37.11;101332.81;5053253;27;96874;-81
2023/06/30 02:32:17;;;;;;;1.58;0.70;;;;;;;29.46;36.91;101334.72;5052336;27;96884;-81
2023/06/30 02:34:44;;;;;;;0.90;0.70;;;;;;;29.46;37.05;101337.47;5033000;27;97496;-81
2023/06/30 02:37:11;;;;;;;1.08;0.82;;;;;;;29.46;37.04;101343.03;5051585;27;97036;-81
2023/06/30 02:39:37;;;;;;;1.65;0.75;;;;;;;29.45;36.92;101346.84;5049603;27;96926;-81
2023/06/30 02:42:04;;;;;;;1.30;0.80;;;;;;;29.46;36.90;101345.78;5051922;27;96979;-81
2023/06/30 02:44:31;;;;;;;0.85;0.60;;;;;;;29.45;36.91;101346.84;5052868;27;99286;-81
2023/06/30 02:46:58;;;;;;;1.70;0.70;;;;;;;29.45;36.92;101349.63;5050667;27;100631;-81
2023/06/30 02:49:24;;;;;;;0.95;0.60;;;;;;;29.44;36.90;101347.06;5051654;27;96777;-81
2023/06/30 02:51:51;;;;;;;1.70;0.70;;;;;;;29.44;36.88;101342.38;5051128;27;96889;-81
2023/06/30 02:54:18;;;;;;;0.93;0.70;;;;;;;29.45;37.16;101346.00;5033009;27;99368;-81
2023/06/30 02:56:44;;;;;;;1.27;0.70;;;;;;;29.43;36.61;101354.53;5052304;27;101365;-81
2023/06/30 02:59:12;;;;;;;1.73;0.77;;;;;;;29.44;36.86;101359.00;5048716;27;96753;-81
2023/06/30 03:01:41;;;;;;;0.73;0.50;;;;;;;29.44;37.07;101353.47;5050916;27;98665;-81
2023/06/30 03:04:08;;;;;;;1.13;0.65;;;;;;;29.44;37.01;101363.69;5034280;27;96989;-81
2023/06/30 03:06:36;;;;;;;1.45;0.90;;;;;;;29.43;36.83;101362.84;5047601;27;99863;-81
2023/06/30 03:09:03;;;;;;;1.10;0.68;;;;;;;29.43;36.56;101357.31;5049873;27;96763;-81
2023/06/30 03:11:31;;;;;;;1.27;0.80;;;;;;;29.42;37.06;101367.50;5035167;27;96756;-81
2023/06/30 03:13:58;;;;;;;0.95;0.70;;;;;;;29.42;37.00;101361.09;5048812;27;97505;-81
2023/06/30 03:16:31;;;;;;;1.23;0.60;;;;;;;29.42;37.10;101361.09;5034195;27;97543;-81
2023/06/30 03:18:59;;;;;;;0.90;0.45;;;;;;;29.42;37.09;101363.88;5051371;27;97500;-81
2023/06/30 03:21:25;;;;;;;1.25;0.73;;;;;;;29.41;36.96;101365.78;5050778;27;97423;-81
2023/06/30 03:23:52;;;;;;;1.42;0.70;;;;;;;29.42;36.89;101364.72;5047227;27;98997;-81
2023/06/30 03:26:19;;;;;;;1.02;0.70;;;;;;;29.41;37.04;101362.16;5046037;27;99025;-81
2023/06/30 03:28:46;;;;;;;1.02;0.60;;;;;;;29.41;36.86;101364.94;5049199;27;97015;-81
2023/06/30 03:31:13;;;;;;;1.38;0.73;;;;;;;29.41;37.00;101357.50;5050895;27;96837;-80
2023/06/30 03:33:40;;;;;;;1.00;0.63;;;;;;;29.41;37.02;101356.63;5052401;27;98225;-80
2023/06/30 03:36:08;;;;;;;1.45;0.70;;;;;;;29.40;37.02;101352.19;5052837;27;99904;-80
2023/06/30 03:38:34;;;;;;;1.23;0.60;;;;;;;29.39;36.88;101356.00;5049326;27;96682;-80
2023/06/30 03:41:01;;;;;;;0.98;0.73;;;;;;;29.39;37.09;101353.25;5054807;27;97157;-80
2023/06/30 03:43:28;;;;;;;2.13;0.90;;;;;;;29.40;36.95;101354.94;5049551;27;98047;-81
2023/06/30 03:45:55;;;;;;;1.05;0.63;;;;;;;29.38;36.92;101352.41;5052732;27;97353;-81
2023/06/30 03:48:23;;;;;;;0.88;0.60;;;;;;;29.39;36.73;101351.31;5052661;27;96956;-80
2023/06/30 03:50:53;;;;;;;0.93;0.60;;;;;;;29.39;36.92;101347.72;5052673;27;97191;-80
2023/06/30 03:53:21;;;;;;;0.90;0.70;;;;;;;29.38;36.86;101348.78;5031808;27;99073;-81
2023/06/30 03:55:48;;;;;;;1.08;0.57;;;;;;;29.37;36.98;101353.47;5033959;27;98636;-81
2023/06/30 03:58:15;;;;;;;0.90;0.60;;;;;;;29.37;36.68;101347.94;5051645;27;97401;-80
2023/06/30 04:00:41;;;;;;;1.08;0.70;;;;;;;29.37;37.04;101344.31;5036123;27;96692;-80
2023/06/30 04:03:08;;;;;;;1.38;0.70;;;;;;;29.37;37.05;101341.53;5050818;27;96898;-80
2023/06/30 04:05:35;;;;;;;0.82;0.60;;;;;;;29.36;37.02;101346.22;5048029;27;97149;-81
2023/06/30 04:08:01;;;;;;;0.68;0.50;;;;;;;29.36;36.89;101335.16;5043642;27;96724;-80
2023/06/30 04:10:28;;;;;;;0.93;0.60;;;;;;;29.36;36.77;101346.22;5050129;27;97317;-80
2023/06/30 04:12:55;;;;;;;0.95;0.55;;;;;;;29.36;36.79;101354.53;5052581;27;99233;-80
2023/06/30 04:15:21;;;;;;;1.58;0.80;;;;;;;29.37;36.83;101344.31;5033935;27;98817;-80
2023/06/30 04:17:48;;;;;;;1.10;0.70;;;;;;;29.36;36.81;101339.84;5051138;27;96753;-80
2023/06/30 04:20:15;;;;;;;1.17;0.80;;;;;;;29.36;36.80;101342.63;5044212;27;96894;-80
2023/06/30 04:22:42;;;;;;;1.00;0.65;;;;;;;29.35;36.78;101341.78;5049379;27;96924;-80
2023/06/30 04:25:09;;;;;;;1.00;0.52;;;;;;;29.35;37.12;101338.16;5038655;27;99447;-80
2023/06/30 04:27:36;;;;;;;2.22;0.75;;;;;;;29.34;36.92;101337.31;5051755;27;96763;-80
2023/06/30 04:30:03;;;;;;;1.40;0.70;;;;;;;29.35;36.77;101338.16;5050819;27;96910;-81
2023/06/30 04:32:30;;;;;;;1.20;0.57;;;;;;;29.34;36.71;101340.06;5051590;27;97443;-81
2023/06/30 04:34:58;;;;;;;1.40;0.60;;;;;;;29.35;36.97;101343.69;5050545;27;96961;-80
2023/06/30 04:37:28;;;;;;;0.90;0.60;;;;;;;29.34;36.87;101337.31;5050579;27;96970;-81
2023/06/30 04:39:59;;;;;;;1.08;0.82;;;;;;;29.35;36.71;101343.69;5053516;27;96764;-80
2023/06/30 04:42:29;;;;;;;0.95;0.60;;;;;;;29.33;36.72;101335.59;5051711;27;97440;-80
2023/06/30 04:44:55;;;;;;;1.35;0.65;;;;;;;29.33;36.67;101338.38;5044539;27;99655;-80
2023/06/30 04:47:22;;;;;;;1.25;0.52;;;;;;;29.33;36.93;101332.00;5049906;27;96855;-80
2023/06/30 04:49:49;;;;;;;0.80;0.60;;;;;;;29.33;36.75;101343.06;5044139;27;96954;-80
2023/06/30 04:52:15;;;;;;;1.25;0.73;;;;;;;29.33;36.66;101335.59;5048536;27;97082;-81
2023/06/30 04:54:42;;;;;;;1.58;0.70;;;;;;;29.33;36.62;101349.44;5051651;27;96761;-81
2023/06/30 04:57:09;;;;;;;0.98;0.60;;;;;;;29.33;36.85;101349.44;5049409;27;97302;-80
2023/06/30 04:59:36;;;;;;;0.88;0.50;;;;;;;29.33;36.83;101351.34;5050608;27;97077;-80
2023/06/30 05:02:03;;;;;;;0.95;0.60;;;;;;;29.32;36.83;101355.19;5051577;27;99453;-81
2023/06/30 05:04:30;;;;;;;1.35;0.70;;;;;;;29.32;36.44;101352.44;5050954;27;97504;-80
2023/06/30 05:06:57;;;;;;;0.80;0.50;;;;;;;29.31;36.46;101357.13;5048903;27;97319;-80
2023/06/30 05:09:23;;;;;;;1.80;0.60;;;;;;;29.32;36.72;101355.19;5030404;27;96740;-80
2023/06/30 05:11:50;;;;;;;0.93;0.52;;;;;;;29.32;36.54;101355.19;5047268;27;97015;-81
2023/06/30 05:14:17;;;;;;;1.02;0.60;;;;;;;29.32;37.10;101352.44;5051815;27;96691;-80
2023/06/30 05:16:43;;;;;;;0.85;0.57;;;;;;;29.32;36.71;101352.44;5049989;27;96683;-80
2023/06/30 05:19:10;;;;;;;2.03;0.70;;;;;;;29.31;36.62;101342.44;5032178;27;97424;-80
2023/06/30 05:21:37;;;;;;;1.50;0.73;;;;;;;29.30;36.49;101352.66;5031720;27;99034;-80
2023/06/30 05:24:04;;;;;;;1.40;0.80;;;;;;;29.30;36.45;101347.13;5047126;27;98271;-80
2023/06/30 05:26:30;;;;;;;1.02;0.60;;;;;;;29.31;36.65;101350.72;5048183;27;96751;-80
2023/06/30 05:28:57;;;;;;;0.90;0.60;;;;;;;29.30;37.01;101352.66;5048859;27;96687;-80
2023/06/30 05:31:30;;;;;;;1.13;0.57;;;;;;;29.30;36.76;101352.66;5042744;27;97701;-80
2023/06/30 05:33:57;;;;;;;0.93;0.65;;;;;;;29.29;36.66;101359.25;5035292;27;100635;-80
2023/06/30 05:36:24;;;;;;;1.25;0.70;;;;;;;29.30;36.55;101355.41;5045080;27;96644;-80
2023/06/30 05:38:50;;;;;;;1.70;0.68;;;;;;;29.30;36.61;101354.56;5046065;27;96730;-80
2023/06/30 05:41:17;;;;;;;0.75;0.50;;;;;;;29.30;36.59;101363.72;5051598;27;96790;-80
2023/06/30 05:43:43;;;;;;;0.90;0.70;;;;;;;29.30;36.51;101362.88;5046989;27;96683;-80
2023/06/30 05:46:10;;;;;;;0.88;0.60;;;;;;;29.31;36.49;101364.56;5052587;27;97462;-81
2023/06/30 05:48:37;;;;;;;0.85;0.52;;;;;;;29.30;36.65;101369.25;5049010;27;96689;-80
2023/06/30 05:51:03;;;;;;;1.38;0.60;;;;;;;29.30;36.56;101362.88;5046575;27;97311;-80
2023/06/30 05:53:30;;;;;;;1.25;0.70;;;;;;;29.30;36.74;101368.41;5052727;27;96931;-80
2023/06/30 05:55:56;;;;;;;1.25;0.65;;;;;;;29.31;36.78;101364.56;5030713;27;97463;-80
2023/06/30 05:58:26;;;;;;;0.98;0.60;;;;;;;29.32;36.67;101363.50;5049716;27;97437;-80
2023/06/30 06:00:52;;;;;;;0.82;0.55;;;;;;;29.30;36.68;101360.94;5050790;27;96720;-80
2023/06/30 06:03:19;;;;;;;1.05;0.50;;;;;;;29.30;36.73;101363.72;5055293;27;97053;-80
2023/06/30 06:05:46;;;;;;;1.05;0.70;;;;;;;29.30;36.54;101360.09;5051685;27;97150;-80
2023/06/30 06:08:13;;;;;;;0.60;0.50;;;;;;;29.31;36.54;101359.88;5054426;27;97240;-80
2023/06/30 06:10:40;;;;;;;1.05;0.60;;;;;;;29.31;36.60;101361.78;5048398;27;100994;-80
2023/06/30 06:13:08;;;;;;;1.92;0.57;;;;;;;29.30;36.66;101358.19;5047101;27;96713;-80
2023/06/30 06:15:34;;;;;;;1.25;0.80;;;;;;;29.31;36.28;101375.63;5052529;27;96821;-80
2023/06/30 06:18:01;;;;;;;1.13;0.65;;;;;;;29.30;36.67;101360.94;5053001;27;97406;-80
2023/06/30 06:20:27;;;;;;;1.17;0.70;;;;;;;29.30;36.61;101363.72;5052915;27;100288;-80
2023/06/30 06:22:54;;;;;;;1.23;0.70;;;;;;;29.30;36.55;101362.88;5054216;27;97633;-80
2023/06/30 06:25:21;;;;;;;1.75;0.88;;;;;;;29.31;36.48;101364.56;5054276;27;97224;-80
2023/06/30 06:27:47;;;;;;;1.40;0.60;;;;;;;29.29;36.63;101367.56;5041997;27;98622;-80
2023/06/30 06:30:14;;;;;;;1.23;0.63;;;;;;;29.31;36.40;101372.88;5068099;27;96900;-80
2023/06/30 06:32:41;;;;;;;1.63;0.73;;;;;;;29.30;36.55;101369.25;5063114;27;96384;-80
2023/06/30 06:35:07;;;;;;;1.30;0.60;;;;;;;29.31;36.73;101367.31;5050903;27;96735;-81
2023/06/30 06:37:34;;;;;;;1.08;0.60;;;;;;;29.31;36.26;101364.56;5044544;27;96755;-80
2023/06/30 06:40:01;;;;;;;1.27;0.50;;;;;;;29.30;36.44;101363.72;5039996;27;96767;-80
2023/06/30 06:42:27;;;;;;;1.30;0.68;;;;;;;29.30;36.42;101369.25;5054523;27;96826;-80
2023/06/30 06:44:54;;;;;;;1.30;0.80;;;;;;;29.30;36.61;101372.00;5054578;27;97357;-80
2023/06/30 06:47:58;;;;;;;2.13;0.60;;;;;;;29.31;36.32;101368.19;5043241;27;96636;-80
2023/06/30 06:50:24;;;;;;;1.45;0.73;;;;;;;29.29;36.37;101372.22;5054448;27;96888;-80
2023/06/30 06:52:51;;;;;;;1.30;0.65;;;;;;;29.28;36.33;101357.56;5055382;27;98183;-80
2023/06/30 06:55:17;;;;;;;1.92;0.80;;;;;;;29.29;36.33;101370.31;5053971;27;97066;-80
2023/06/30 06:57:48;;;;;;;1.55;0.80;;;;;;;29.31;36.51;101364.56;5057650;27;96948;-80
2023/06/30 07:00:16;;;;;;;1.48;0.90;;;;;;;29.29;36.25;101364.78;5055463;27;97556;-80
2023/06/30 07:02:43;;;;;;;1.40;0.80;;;;;;;29.30;36.42;101362.88;5054834;27;96853;-80
2023/06/30 07:05:10;;;;;;;1.38;0.95;;;;;;;29.30;36.38;101373.94;5056524;27;96773;-80
2023/06/30 07:07:37;;;;;;;2.45;0.80;;;;;;;29.30;36.28;101369.25;5056104;27;96782;-80
2023/06/30 07:10:05;;;;;;;1.02;0.68;;;;;;;29.30;36.26;101368.41;5055142;27;96727;-81
2023/06/30 07:12:32;;;;;;;2.28;1.27;;;;;;;29.30;35.91;101373.94;5057092;27;96856;-80
2023/06/30 07:14:58;;;;;;;1.67;0.90;;;;;;;29.31;36.00;101367.31;5056578;27;96786;-80
2023/06/30 07:17:25;;;;;;;1.92;0.88;;;;;;;29.30;36.27;101365.63;5045086;27;97084;-80
2023/06/30 07:19:51;;;;;;;2.92;1.20;;;;;;;29.30;35.99;101357.34;5053982;27;96791;-81
2023/06/30 07:22:18;;;;;;;1.55;0.93;;;;;;;29.30;36.10;101363.72;5053551;27;99103;-80
2023/06/30 07:24:45;;;;;;;2.63;0.95;;;;;;;29.31;35.83;101370.94;5055196;27;96588;-80
2023/06/30 07:27:11;;;;;;;1.50;1.08;;;;;;;29.31;36.05;101364.56;5056623;27;97016;-81
2023/06/30 07:29:38;;;;;;;2.75;1.00;;;;;;;29.32;35.98;101372.66;5054609;27;97315;-80
2023/06/30 07:32:05;;;;;;;1.80;0.95;;;;;;;29.31;35.94;101368.19;5054039;27;96938;-80
2023/06/30 07:34:33;;;;;;;2.20;1.00;;;;;;;29.32;35.88;101371.78;5053737;27;97214;-80
2023/06/30 07:37:04;;;;;;;2.00;1.10;;;;;;;29.31;35.92;101365.41;5049610;27;97195;-80
2023/06/30 07:39:31;;;;;;;3.70;1.27;;;;;;;29.32;35.83;101371.78;5048134;27;96822;-80
2023/06/30 07:41:58;;;;;;;1.88;1.00;;;;;;;29.32;35.80;101367.13;5053343;27;97739;-80
2023/06/30 07:44:25;;;;;;;4.00;0.98;;;;;;;29.31;35.94;101372.88;5029814;28;96727;-80
2023/06/30 07:46:51;;;;;;;1.83;1.10;;;;;;;29.33;35.79;101384.56;5048141;27;97121;-81
2023/06/30 07:49:18;;;;;;;1.17;0.80;;;;;;;29.32;35.81;101378.19;5037213;27;97777;-80
2023/06/30 07:51:45;;;;;;;1.67;1.13;;;;;;;29.33;35.73;101374.34;5036322;27;97214;-80
2023/06/30 07:54:11;;;;;;;2.00;0.90;;;;;;;29.33;35.68;101373.50;5038937;27;96744;-81
2023/06/30 07:56:39;;;;;;;2.25;0.90;;;;;;;29.33;35.92;101373.50;5038200;27;96808;-80
2023/06/30 07:59:06;;;;;;;1.60;0.93;;;;;;;29.34;35.73;101372.44;5019983;28;99331;-80
2023/06/30 08:01:33;;;;;;;1.83;0.90;;;;;;;29.34;35.82;101369.66;5039031;27;97405;-80
2023/06/30 08:04:00;;;;;;;2.08;1.10;;;;;;;29.33;35.65;101374.34;5037837;27;96464;-80
2023/06/30 08:06:26;;;;;;;1.67;0.85;;;;;;;29.35;35.76;101371.34;5039587;27;96856;-80
2023/06/30 08:08:53;;;;;;;1.90;0.95;;;;;;;29.34;35.65;101373.28;5037797;27;97422;-80
2023/06/30 08:11:19;;;;;;;3.40;0.88;;;;;;;29.35;35.74;101369.44;5037692;27;97809;-80
2023/06/30 08:13:46;;;;;;;1.85;0.90;;;;;;;29.35;35.74;101368.59;5052733;27;96967;-80
2023/06/30 08:16:12;;;;;;;1.45;0.85;;;;;;;29.35;35.84;101377.75;5049493;27;96815;-81
2023/06/30 08:18:39;;;;;;;1.58;1.02;;;;;;;29.35;35.89;101372.19;5035821;27;96979;-80
2023/06/30 08:21:16;;;;;;;2.08;1.00;;;;;;;29.35;35.76;101371.34;5033684;27;98606;-80
2023/06/30 08:23:43;;;;;;;2.13;1.00;;;;;;;29.35;35.76;101372.19;5051212;27;96686;-80
2023/06/30 08:26:09;;;;;;;1.67;0.95;;;;;;;29.36;35.92;101376.66;5037032;27;96995;-80
2023/06/30 08:28:36;;;;;;;1.80;0.80;;;;;;;29.36;35.74;101373.91;5036207;27;97036;-80
2023/06/30 08:31:03;;;;;;;2.15;0.80;;;;;;;29.37;35.66;101371.97;5036860;27;98476;-80
2023/06/30 08:33:29;;;;;;;2.05;0.77;;;;;;;29.37;35.74;101369.22;5033635;27;96988;-80
2023/06/30 08:36:00;;;;;;;3.85;1.00;;;;;;;29.37;35.63;101361.75;5033783;27;96480;-80
2023/06/30 08:38:27;;;;;;;1.30;0.80;;;;;;;29.38;35.77;101359.84;5031213;27;97942;-80
2023/06/30 08:40:54;;;;;;;1.38;0.80;;;;;;;29.38;35.65;101360.69;5031355;27;96935;-80
2023/06/30 08:43:22;;;;;;;1.30;0.93;;;;;;;29.38;35.63;101366.22;5045238;27;96505;-80
2023/06/30 08:45:53;;;;;;;1.73;0.80;;;;;;;29.39;35.68;101362.41;5037154;27;96727;-80
2023/06/30 08:48:22;;;;;;;2.20;1.20;;;;;;;29.38;35.86;101357.06;5021227;28;101216;-80
2023/06/30 08:50:50;;;;;;;1.30;0.80;;;;;;;29.38;35.86;101346.88;5031675;27;97441;-80
2023/06/30 08:53:18;;;;;;;1.50;1.00;;;;;;;29.39;35.60;101356.00;5032513;27;96672;-80
2023/06/30 08:55:46;;;;;;;1.35;0.88;;;;;;;29.39;35.70;101345.78;5031953;27;97203;-80
2023/06/30 08:58:13;;;;;;;1.67;0.90;;;;;;;29.39;35.95;101345.78;5041422;27;96646;-80
2023/06/30 09:00:52;;;;;;;1.70;0.80;;;;;;;29.39;35.60;101342.16;5043036;27;96647;-80
2023/06/30 09:03:19;;;;;;;1.70;1.10;;;;;;;29.39;35.44;101340.25;5044893;27;97002;-80
2023/06/30 09:05:47;;;;;;;1.05;0.77;;;;;;;29.39;35.56;101334.72;5040253;27;96865;-80
2023/06/30 09:08:38;;;;;;;1.58;0.77;;;;;;;29.40;35.43;101339.19;5050132;27;100172;-80
2023/06/30 09:11:08;;;;;;;1.00;0.77;;;;;;;29.40;35.44;101346.63;4999942;27;98132;-80
2023/06/30 09:13:38;;;;;;;1.20;0.80;;;;;;;29.40;35.55;101338.34;5034803;27;97101;-81
2023/06/30 09:16:10;;;;;;;1.70;0.80;;;;;;;29.42;35.27;101336.19;5043935;27;96947;-80
2023/06/30 09:18:36;;;;;;;2.40;1.02;;;;;;;29.41;35.32;101337.25;5049428;27;99311;-80
2023/06/30 09:21:06;;;;;;;1.35;0.80;;;;;;;29.41;35.41;101331.72;5042781;27;96964;-80
2023/06/30 09:23:33;;;;;;;1.40;0.80;;;;;;;29.42;35.30;101330.66;5037775;27;97268;-80
2023/06/30 09:26:00;;;;;;;1.65;1.13;;;;;;;29.42;35.50;101327.91;5048717;27;96755;-80
2023/06/30 09:28:34;;;;;;;1.50;0.77;;;;;;;29.44;35.41;101330.47;5031304;27;96673;-79
2023/06/30 09:31:02;;;;;;;1.80;0.90;;;;;;;29.42;35.48;101333.44;5046824;27;98099;-80
2023/06/30 09:33:28;;;;;;;1.98;0.88;;;;;;;29.42;35.30;101320.44;5048473;27;96691;-80
2023/06/30 09:35:56;;;;;;;3.17;0.90;;;;;;;29.44;35.26;101325.78;5046446;27;97496;-80
2023/06/30 09:38:24;;;;;;;1.25;0.82;;;;;;;29.45;35.36;101332.16;5048725;27;97476;-79
2023/06/30 09:40:50;;;;;;;1.45;0.70;;;;;;;29.44;35.19;101327.72;5053771;27;99998;-80
2023/06/30 09:43:20;;;;;;;1.98;0.85;;;;;;;29.44;35.36;101331.31;5053184;27;96729;-80
2023/06/30 09:45:53;;;;;;;1.90;0.90;;;;;;;29.45;35.08;101321.94;5053837;27;96998;-80
2023/06/30 09:48:20;;;;;;;1.08;0.55;;;;;;;29.45;35.20;101337.72;5054418;27;98066;-80
2023/06/30 09:50:47;;;;;;;1.48;0.80;;;;;;;29.44;35.25;101322.16;5055215;27;96792;-80
2023/06/30 09:53:19;;;;;;;1.90;0.90;;;;;;;29.45;35.08;101316.41;5053952;27;97036;-80
2023/06/30 09:55:51;;;;;;;1.58;0.63;;;;;;;29.46;35.20;101317.25;5034999;27;97053;-80
2023/06/30 09:58:19;;;;;;;1.23;0.70;;;;;;;29.45;35.09;101313.66;5047420;27;97381;-80
2023/06/30 10:00:47;;;;;;;1.63;0.85;;;;;;;29.45;34.97;101323.88;5052046;27;97426;-80
2023/06/30 10:03:18;;;;;;;2.63;0.90;;;;;;;29.45;35.14;101319.19;5053472;27;96577;-80
2023/06/30 10:05:48;;;;;;;1.98;0.80;;;;;;;29.45;34.70;101324.72;5054548;27;96893;-80
2023/06/30 10:08:16;;;;;;;1.75;0.80;;;;;;;29.45;34.79;101324.72;5051283;27;98586;-80
2023/06/30 10:10:43;;;;;;;1.17;0.70;;;;;;;29.45;34.76;101315.56;5052993;27;96709;-81
2023/06/30 10:13:12;;;;;;;1.85;0.77;;;;;;;29.46;34.80;101315.34;5044317;27;96818;-79
2023/06/30 10:15:40;;;;;;;3.88;0.75;;;;;;;29.46;35.03;101317.25;5038836;27;97950;-79
2023/06/30 10:18:10;;;;;;;1.23;0.80;;;;;;;29.45;34.32;101319.19;5052727;27;97924;-79
2023/06/30 10:20:36;;;;;;;1.10;0.82;;;;;;;29.45;34.45;101319.19;5052919;27;97723;-79
2023/06/30 10:23:14;;;;;;;2.00;0.90;;;;;;;29.44;34.36;101317.50;5056248;27;96686;-81
2023/06/30 10:25:41;;;;;;;1.10;0.75;;;;;;;29.45;34.33;101315.56;5052055;27;97187;-80
2023/06/30 10:28:08;;;;;;;2.72;0.80;;;;;;;29.44;34.38;101317.50;5049641;27;97429;-81
2023/06/30 10:30:35;;;;;;;1.13;0.70;;;;;;;29.44;34.16;101306.41;5050926;27;96753;-81
2023/06/30 10:33:02;;;;;;;3.72;0.80;;;;;;;29.44;34.21;101303.66;5034170;27;97138;-81
2023/06/30 10:35:30;;;;;;;1.70;0.80;;;;;;;29.44;33.94;101303.66;5049418;27;96585;-81
2023/06/30 10:37:57;;;;;;;1.73;0.82;;;;;;;29.45;34.23;101305.34;5041098;27;98735;-81
2023/06/30 10:40:26;;;;;;;1.42;0.70;;;;;;;29.45;33.95;101305.34;5070274;27;98618;-81
2023/06/30 10:42:57;;;;;;;1.50;0.90;;;;;;;29.46;33.75;101308.97;5054590;27;97035;-81
2023/06/30 10:45:33;;;;;;;1.23;0.75;;;;;;;29.46;33.77;101303.44;5053734;27;97394;-82
2023/06/30 10:48:14;;;;;;;2.13;0.90;;;;;;;29.44;33.77;101298.13;5043256;27;97577;-81
2023/06/30 10:50:42;;;;;;;1.02;0.85;;;;;;;29.44;33.82;101294.50;5039514;27;97317;-81
2023/06/30 10:53:16;;;;;;;3.08;1.10;;;;;;;29.44;33.70;101289.81;5048310;27;97082;-81
2023/06/30 10:55:43;;;;;;;1.10;0.70;;;;;;;29.44;33.76;101291.72;5048906;27;97307;-81
2023/06/30 10:58:21;;;;;;;1.90;0.82;;;;;;;29.45;33.32;101287.91;5047092;27;97743;-82
2023/06/30 11:01:05;;;;;;;1.63;0.88;;;;;;;29.44;33.25;101292.59;5043790;27;99926;-80
2023/06/30 11:03:57;;;;;;;1.58;0.75;;;;;;;29.44;33.38;101288.97;5049683;27;96841;-81
2023/06/30 11:06:25;;;;;;;2.15;0.80;;;;;;;29.42;33.46;101283.63;5054421;27;96792;-82
2023/06/30 11:09:22;;;;;;;2.47;1.00;;;;;;;29.42;33.18;101278.09;5034235;27;96876;-81
2023/06/30 11:11:50;;;;;;;2.05;0.90;;;;;;;29.40;33.41;101278.31;5025168;27;97576;-82
2023/06/30 11:14:34;;;;;;;1.30;0.80;;;;;;;29.43;33.29;101282.59;5049202;27;97826;-82
2023/06/30 11:17:07;;;;;;;1.90;0.90;;;;;;;29.42;33.32;101278.09;5048895;27;97386;-81
2023/06/30 11:19:36;;;;;;;2.40;0.80;;;;;;;29.41;32.99;101285.53;5050798;27;100117;-81
2023/06/30 11:22:25;;;;;;;1.75;1.10;;;;;;;29.42;33.00;101280.84;5037294;27;96806;-83
2023/06/30 11:24:52;;;;;;;1.80;0.93;;;;;;;29.41;33.05;101277.25;5038482;27;96729;-82
2023/06/30 11:27:19;;;;;;;1.73;0.82;;;;;;;29.42;32.93;101275.31;5038920;27;97267;-83
2023/06/30 11:29:49;;;;;;;2.00;0.80;;;;;;;29.42;32.96;101270.63;5031811;27;99774;-82